Relevés horaires Matro (Suisse)


Relevés horaires à Matro - Mercredi 05 Janv. 2022
Heure UTC1 Température [°C] Vent [km/h] Hum. [%] Pres.4 [hPa] Visi. [Km] Nébu. [octa] Préc.5 [mm] Cond.
2m. Res. Ros. Dir.2 Vit. Moy. Raf.3
23:00 -10.7 -24 -16.4 NNO 64.8 -- 100.0 63 850(0.9/3h) -- -- -- --
22:00 -11.1 -23.9 -17.6 NNO 57.4 -- 100.0 59 850(0.3/3h) -- -- -- --
21:00 -11.3 -24.1 -18.5 NNO 55.6 -- 113.0 55 850(0.6/3h) -- -- -- --
20:00 -10.9 -24.9 -20.0 NNO 74.1 -- 107.4 47 850(0.5/3h) -- -- -- --
19:00 -11.1 -24.9 -20.3 NNO 70.4 -- 101.9 46 850(0.5/3h) -- -- -- --
18:00 -11.4 -25.2 -17.9 NNO 68.5 -- 96.3 58 850(0.3/3h) -- -- -- --
17:00 -10.9 -24.4 -17.6 NNO 66.7 -- 92.6 58 850(0.2/3h) -- -- -- --
16:00 -9.9 -22.3 -16.2 NNO 57.4 -- 94.5 60 850(0.1/3h) -- -- -- --
15:00 -8.8 -21 -15.0 NNO 61.1 -- 85.2 61 850(-0.1/3h) -- -- -- --
14:00 -7.8 -19.1 -13.7 NNO 53.7 -- 83.3 62 850(-0.3/3h) -- -- -- --
13:00 -6.8 -16.9 -12.4 NNO 44.4 -- 64.8 64 850(0.2/3h) -- -- -- --
12:00 -6.0 -15.5 -12.3 NNO 40.7 -- 77.8 61 850(0.3/3h) -- -- -- --
11:00 -4.8 -13.9 -10.3 NNO 40.7 -- 59.3 65 850(0.3/3h) -- -- -- --
10:00 -4.4 -13.8 -10.8 NNO 46.3 -- 63.0 61 850(0.4/3h) -- -- -- --
09:00 -4.4 -13.2 -10.5 NNO 38.9 -- 50.0 62 850(0.4/3h) -- -- -- --
08:00 -4.2 -12.7 -9.1 NNO 37.0 -- 48.2 69 850(0.3/3h) -- -- -- --
07:00 -4.5 -12.7 -5.2 NNO 33.3 -- 42.6 95 850(0.5/3h) -- -- -- --
06:00 -3.7 -11 -4.8 NO 27.8 -- 66.7 92 850(0.5/3h) -- -- -- --
05:00 -2.8 -9.6 -3.6 ONO 25.9 -- 51.9 94 850(-0.3/3h) -- -- -- --
04:00 -2.1 -10.4 -2.1 SSE 42.6 -- 66.7 100 850(-1.5/3h) -- -- -- --
03:00 -2.1 -11.1 -2.1 SSE 51.9 -- 64.8 100 850(-2.5/3h) -- -- -- --
02:00 -2.0 -10.7 -2.0 SSE 48.2 -- 63.0 100 850(-2.7/3h) -- -- -- --
01:00 -2.0 -10.4 -2.0 SSE 44.4 -- 55.6 100 850(-2.7/3h) -- -- -- --
00:00 -2.2 -10.6 -2.2 S 42.6 -- 55.6 100 850(-2.2/3h) -- -- -- --

1 Coordinated Universal Time. Actuellement il est 07:00 locale et 05:00 UTC.

2 Le vent souffle depuis la direction indiquée vers la direction oposée.

3 Les rafales max. sont disponible 40 min après l'heure du relevé.

4 Pour les stations d'altitude (plus de 600m) le géopotentiel du niveau le plus proche de la pression obligatoire est indiqué.

5 Les stations disposant d'un diffuseur peuvent indiquer "trace". Cela signifie que des précipitations ont touchés le sol mais que la quantité est inférieure à 0.1 mm.

Copyright

Les données affichées sur cette page sont la propriété exclusive de Météo Suisse.

Récapitulatif de la journée
Température [°C] Vent [km/h] Ensoleillement4 [h] Precipitations totale5 [mm] Pression [Hpa]
Min1 Max.2 Moy.3 Max. Min Max.
-3.6 -3.7 0 113.0 3 h 36 min 0 850.0 850.0

1 Température minimale relevée entre 18:00 UTC la veille et 18:00 UTC le jour donné.

2 Température maximale relevée entre 06:00 UTC le jour donné et 06:00 UTC le lendemain.

3 Vent moyen de la journée basé sur les relevés horaires.

4 Ensoleillement en heures relevé entre 06:00 UTC la veille et 06:00 UTC le jour donné.

5 Précipitations totales tombées entre 06:00 UTC la jour donné et 06:00 UTC le lendemain.

Graphiques horaires